createdAt,value
2019-02-21T00:01:20.666Z,11.87
2019-02-21T00:03:50.318Z,10.50
2019-02-21T00:06:19.892Z,11.47
2019-02-21T00:08:51.851Z,10.50
2019-02-21T00:11:21.482Z,11.47
2019-02-21T00:13:51.060Z,11.27
2019-02-21T00:16:20.648Z,11.67
2019-02-21T00:18:50.325Z,11.40
2019-02-21T00:21:19.940Z,12.67
2019-02-21T00:23:49.514Z,11.13
2019-02-21T00:26:19.129Z,12.50
2019-02-21T00:28:48.725Z,11.50
2019-02-21T00:31:18.331Z,11.07
2019-02-21T00:33:48.005Z,10.87
2019-02-21T00:36:17.574Z,11.93
2019-02-21T00:38:47.178Z,12.43
2019-02-21T00:41:17.169Z,11.87
2019-02-21T00:43:46.818Z,12.13
2019-02-21T00:46:16.413Z,11.17
2019-02-21T00:48:46.038Z,12.30
2019-02-21T00:51:15.627Z,10.50
2019-02-21T00:53:45.225Z,11.57
2019-02-21T00:56:14.872Z,10.80
2019-02-21T00:58:44.440Z,10.87
2019-02-21T01:01:14.006Z,10.87
2019-02-21T01:03:43.660Z,11.47
2019-02-21T01:06:13.231Z,11.87
2019-02-21T01:08:42.914Z,10.13
2019-02-21T01:11:12.563Z,11.93
2019-02-21T01:13:45.254Z,10.53
2019-02-21T01:16:14.846Z,11.30
2019-02-21T01:18:44.460Z,12.57
2019-02-21T01:21:14.146Z,11.37
2019-02-21T01:23:43.719Z,10.10
2019-02-21T01:26:13.362Z,10.40
2019-02-21T01:28:42.959Z,9.70
2019-02-21T01:31:12.625Z,9.47
2019-02-21T01:33:42.281Z,9.13
2019-02-21T01:36:11.834Z,9.93
2019-02-21T01:38:41.404Z,9.80
2019-02-21T01:41:11.051Z,10.73
2019-02-21T01:43:40.619Z,11.60
2019-02-21T01:46:10.287Z,9.47
2019-02-21T01:48:40.177Z,10.53
2019-02-21T01:51:09.770Z,10.33
2019-02-21T01:53:39.433Z,10.23
2019-02-21T01:56:09.235Z,9.53
2019-02-21T01:58:38.802Z,10.23
2019-02-21T02:01:09.078Z,10.67
2019-02-21T02:03:38.769Z,11.13
2019-02-21T02:06:08.363Z,11.80
2019-02-21T02:08:38.231Z,12.07
2019-02-21T02:11:07.961Z,11.63
2019-02-21T02:13:37.581Z,12.20
2019-02-21T02:16:07.155Z,12.20
2019-02-21T02:18:36.755Z,11.87
2019-02-21T02:21:07.042Z,12.57
2019-02-21T02:23:36.608Z,12.27
2019-02-21T02:26:06.220Z,12.33
2019-02-21T02:28:35.786Z,13.33
2019-02-21T02:31:05.437Z,11.73
2019-02-21T02:33:35.049Z,13.83
2019-02-21T02:36:04.639Z,13.30
2019-02-21T02:38:34.227Z,11.80
2019-02-21T02:41:03.868Z,12.80
2019-02-21T02:43:33.544Z,11.63
2019-02-21T02:46:03.328Z,10.77
2019-02-21T02:48:32.970Z,12.03
2019-02-21T02:51:02.535Z,13.07
2019-02-21T02:53:32.116Z,12.97
2019-02-21T02:56:01.798Z,11.97
2019-02-21T02:58:31.339Z,12.50
2019-02-21T03:01:00.902Z,12.17
2019-02-21T03:03:30.517Z,12.30
2019-02-21T03:06:00.140Z,12.83
2019-02-21T03:08:29.737Z,14.10
2019-02-21T03:10:59.335Z,14.47
2019-02-21T03:13:28.936Z,13.77
2019-02-21T03:15:58.572Z,16.50
2019-02-21T03:18:28.191Z,14.73
2019-02-21T03:20:57.757Z,14.73
2019-02-21T03:23:27.329Z,15.40
2019-02-21T03:25:56.946Z,15.00
2019-02-21T03:28:26.527Z,16.37
2019-02-21T03:30:56.084Z,16.27
2019-02-21T03:33:25.755Z,16.90
2019-02-21T03:35:55.309Z,17.40
2019-02-21T03:38:24.908Z,17.87
2019-02-21T03:40:54.638Z,18.00
2019-02-21T03:43:24.201Z,18.37
2019-02-21T03:45:53.777Z,17.83
2019-02-21T03:48:23.430Z,17.47
2019-02-21T03:50:53.018Z,18.80
2019-02-21T03:53:22.586Z,19.23
2019-02-21T03:55:52.224Z,20.27
2019-02-21T03:58:21.917Z,19.73
2019-02-21T04:00:51.486Z,20.00
2019-02-21T04:03:21.102Z,19.83
2019-02-21T04:05:50.879Z,21.07
2019-02-21T04:08:20.456Z,19.23
2019-02-21T04:10:50.116Z,19.43
2019-02-21T04:13:19.700Z,19.57
2019-02-21T04:15:49.349Z,18.97
2019-02-21T04:18:19.015Z,21.83
2019-02-21T04:20:48.611Z,18.57
2019-02-21T04:23:18.194Z,19.00
2019-02-21T04:25:47.827Z,19.47
2019-02-21T04:28:17.429Z,18.70
2019-02-21T04:30:47.015Z,18.17
2019-02-21T04:33:16.670Z,18.93
2019-02-21T04:35:46.244Z,19.73
2019-02-21T04:38:15.815Z,17.10
2019-02-21T04:40:45.486Z,18.33
2019-02-21T04:43:15.071Z,18.43
2019-02-21T04:45:44.658Z,19.07
2019-02-21T04:48:14.275Z,21.87
2019-02-21T04:50:43.843Z,22.37
2019-02-21T04:53:13.473Z,19.10
2019-02-21T04:55:43.105Z,57.47
2019-02-21T04:58:12.739Z,19.70
2019-02-21T05:00:42.333Z,20.97
2019-02-21T05:03:11.980Z,20.40
2019-02-21T05:05:41.590Z,20.83
2019-02-21T05:08:11.144Z,20.20
2019-02-21T05:10:40.829Z,22.53
2019-02-21T05:13:10.402Z,19.23
2019-02-21T05:15:39.984Z,20.17
2019-02-21T05:18:09.586Z,20.93
2019-02-21T05:20:39.221Z,20.13
2019-02-21T05:23:08.935Z,22.70
2019-02-21T05:25:38.582Z,21.37
2019-02-21T05:28:45.313Z,20.77
2019-02-21T05:31:29.488Z,21.63
2019-02-21T05:34:13.781Z,20.17
2019-02-21T05:37:13.386Z,22.93
2019-02-21T05:40:03.090Z,22.10
2019-02-21T05:42:58.031Z,22.17
2019-02-21T05:45:46.874Z,21.33
2019-02-21T05:48:26.404Z,20.57
2019-02-21T05:51:18.643Z,20.93
2019-02-21T05:53:54.493Z,20.93
2019-02-21T05:56:54.900Z,20.77
2019-02-21T05:59:52.471Z,22.17
2019-02-21T06:02:31.116Z,19.80
2019-02-21T06:05:09.786Z,19.87
2019-02-21T06:08:04.160Z,20.00
2019-02-21T06:10:51.975Z,18.53
2019-02-21T06:13:40.460Z,18.80
2019-02-21T06:16:27.661Z,19.20
2019-02-21T06:19:06.056Z,20.30
2019-02-21T06:21:51.739Z,19.83
2019-02-21T06:24:35.525Z,17.57
2019-02-21T06:27:16.516Z,17.60
2019-02-21T06:30:01.550Z,18.00
2019-02-21T06:32:31.265Z,17.93
2019-02-21T06:35:02.843Z,18.30
2019-02-21T06:37:32.214Z,18.37
2019-02-21T06:40:01.919Z,19.10
2019-02-21T06:42:31.596Z,18.23
2019-02-21T06:45:01.200Z,19.17
2019-02-21T06:47:30.829Z,18.43
2019-02-21T06:50:00.483Z,16.73
2019-02-21T06:52:30.224Z,17.70
2019-02-21T06:55:02.082Z,17.73
2019-02-21T06:57:31.312Z,19.07
2019-02-21T07:00:00.915Z,20.23
2019-02-21T07:02:33.768Z,17.83
2019-02-21T07:05:03.435Z,19.30
2019-02-21T07:07:33.109Z,17.20
2019-02-21T07:10:02.879Z,16.00
2019-02-21T07:12:32.555Z,18.20
2019-02-21T07:15:02.368Z,19.63
2019-02-21T07:17:31.981Z,19.10
2019-02-21T07:20:01.701Z,17.67
2019-02-21T07:22:31.428Z,17.17
2019-02-21T07:25:06.567Z,17.60
2019-02-21T07:27:36.211Z,19.53
2019-02-21T07:30:06.097Z,17.07
2019-02-21T07:32:35.691Z,18.40
2019-02-21T07:35:05.449Z,15.70
2019-02-21T07:37:35.183Z,17.83
2019-02-21T07:40:05.036Z,17.63
2019-02-21T07:42:34.985Z,20.83
2019-02-21T07:45:05.125Z,19.00
2019-02-21T07:47:35.082Z,24.07
2019-02-21T07:50:05.304Z,15.77
2019-02-21T07:52:35.060Z,15.30
2019-02-21T07:55:04.854Z,15.20
2019-02-21T07:57:34.633Z,16.57
2019-02-21T08:00:04.775Z,15.33
2019-02-21T08:02:34.370Z,16.40
2019-02-21T08:05:04.357Z,15.43
2019-02-21T08:07:34.014Z,14.83
2019-02-21T08:10:03.925Z,17.40
2019-02-21T08:12:33.572Z,13.97
2019-02-21T08:15:03.165Z,13.67
2019-02-21T08:17:32.764Z,13.50
2019-02-21T08:20:08.509Z,13.63
2019-02-21T08:22:33.802Z,14.73
2019-02-21T08:25:03.448Z,18.10
2019-02-21T08:27:35.175Z,18.60
2019-02-21T08:30:04.864Z,15.47
2019-02-21T08:32:51.700Z,14.73
2019-02-21T08:35:21.293Z,13.50
2019-02-21T08:37:51.058Z,12.73
2019-02-21T08:40:20.872Z,14.07
2019-02-21T08:42:50.556Z,16.43
2019-02-21T08:45:20.351Z,15.93
2019-02-21T08:47:50.266Z,15.63
2019-02-21T08:50:22.322Z,14.20
2019-02-21T08:52:51.671Z,14.40
2019-02-21T08:55:21.752Z,12.80
2019-02-21T08:57:51.439Z,12.83
2019-02-21T09:00:21.311Z,12.60
2019-02-21T09:02:51.051Z,13.17
2019-02-21T09:05:20.958Z,13.43
2019-02-21T09:07:50.674Z,14.37
2019-02-21T09:10:20.396Z,13.80
2019-02-21T09:12:50.051Z,10.70
2019-02-21T09:15:20.041Z,16.23
2019-02-21T09:17:50.103Z,15.53
2019-02-21T09:20:19.949Z,13.53
2019-02-21T09:22:50.155Z,11.33
2019-02-21T09:25:20.450Z,11.77
2019-02-21T09:27:50.164Z,12.00
2019-02-21T09:30:20.219Z,10.97
2019-02-21T09:32:50.572Z,12.90
2019-02-21T09:35:20.137Z,11.13
2019-02-21T09:37:49.816Z,12.20
2019-02-21T09:40:19.590Z,11.30
2019-02-21T09:42:49.203Z,11.43
2019-02-21T09:45:19.240Z,12.43
2019-02-21T09:47:48.963Z,10.43
2019-02-21T09:50:18.691Z,11.73
2019-02-21T09:52:48.340Z,11.87
2019-02-21T09:55:18.342Z,12.30
2019-02-21T09:57:48.034Z,11.90
2019-02-21T10:00:19.379Z,11.80
2019-02-21T10:02:49.092Z,11.67
2019-02-21T10:05:18.840Z,11.50
2019-02-21T10:07:48.440Z,12.23
2019-02-21T10:10:18.580Z,11.37
2019-02-21T10:12:48.303Z,12.00
2019-02-21T10:15:18.165Z,12.00
2019-02-21T10:17:47.854Z,11.97
2019-02-21T10:20:18.885Z,10.20
2019-02-21T10:22:48.474Z,10.90
2019-02-21T10:25:25.843Z,12.07
2019-02-21T10:27:55.485Z,12.43
2019-02-21T10:30:25.233Z,12.50
2019-02-21T10:32:55.024Z,12.17
2019-02-21T10:35:24.697Z,11.30
2019-02-21T10:37:54.288Z,11.97
2019-02-21T10:40:24.049Z,10.00
2019-02-21T10:42:53.696Z,10.33
2019-02-21T10:45:23.289Z,10.57
2019-02-21T10:47:52.942Z,11.63
2019-02-21T10:50:22.753Z,10.97
2019-02-21T10:52:52.332Z,11.27
2019-02-21T10:55:22.005Z,11.53
2019-02-21T10:57:51.619Z,9.20
2019-02-21T11:00:23.972Z,9.90
2019-02-21T11:02:53.747Z,11.17
2019-02-21T11:05:23.331Z,10.30
2019-02-21T11:07:53.012Z,11.07
2019-02-21T11:10:24.820Z,12.80
2019-02-21T11:12:54.396Z,11.30
2019-02-21T11:15:24.620Z,16.80
2019-02-21T11:17:54.469Z,10.03
2019-02-21T11:20:24.141Z,10.13
2019-02-21T11:22:53.705Z,11.23
2019-02-21T11:25:23.465Z,10.47
2019-02-21T11:27:53.042Z,10.03
2019-02-21T11:30:22.962Z,11.97
2019-02-21T11:32:52.617Z,10.93
2019-02-21T11:35:22.215Z,10.27
2019-02-21T11:37:51.790Z,9.63
2019-02-21T11:40:21.449Z,11.87
2019-02-21T11:42:51.016Z,10.80
2019-02-21T11:45:21.054Z,10.10
2019-02-21T11:47:50.689Z,10.47
2019-02-21T11:50:20.270Z,9.93
2019-02-21T11:52:49.948Z,10.43
2019-02-21T11:55:21.138Z,9.73
2019-02-21T11:57:50.775Z,10.93
2019-02-21T12:00:24.592Z,12.10
2019-02-21T12:02:54.236Z,9.33
2019-02-21T12:05:32.140Z,9.67
2019-02-21T12:07:55.506Z,10.40
2019-02-21T12:10:25.152Z,11.13
2019-02-21T12:12:54.734Z,9.63
2019-02-21T12:15:24.435Z,9.63
2019-02-21T12:17:54.066Z,9.43
2019-02-21T12:20:23.788Z,11.10
2019-02-21T12:22:53.375Z,10.80
2019-02-21T12:25:23.065Z,9.87
2019-02-21T12:27:52.685Z,9.13
2019-02-21T12:30:22.412Z,9.97
2019-02-21T12:32:52.071Z,10.37
2019-02-21T12:35:29.294Z,10.60
2019-02-21T12:37:52.990Z,10.77
2019-02-21T12:40:22.666Z,9.47
2019-02-21T12:42:52.231Z,12.57
2019-02-21T12:45:22.010Z,13.60
2019-02-21T12:47:53.872Z,9.90
2019-02-21T12:50:22.938Z,12.27
2019-02-21T12:52:52.510Z,10.70
2019-02-21T12:55:28.045Z,9.63
2019-02-21T12:57:53.474Z,11.90
2019-02-21T13:00:23.169Z,10.20
2019-02-21T13:02:52.843Z,13.47
2019-02-21T13:05:22.537Z,10.03
2019-02-21T13:07:52.083Z,9.63
2019-02-21T13:10:21.747Z,9.43
2019-02-21T13:12:51.293Z,9.50
2019-02-21T13:15:20.898Z,11.30
2019-02-21T13:17:51.204Z,10.77
2019-02-21T13:20:20.970Z,10.20
2019-02-21T13:22:50.582Z,8.87
2019-02-21T13:25:20.253Z,10.20
2019-02-21T13:27:49.881Z,10.00
2019-02-21T13:30:19.565Z,8.97
2019-02-21T13:32:49.243Z,9.43
2019-02-21T13:35:18.830Z,8.50
2019-02-21T13:37:48.454Z,9.23
2019-02-21T13:40:20.920Z,8.07
2019-02-21T13:42:49.408Z,8.93
2019-02-21T13:45:19.003Z,8.40
2019-02-21T13:47:48.669Z,9.27
2019-02-21T13:50:18.364Z,8.13
2019-02-21T13:52:47.948Z,8.30
2019-02-21T13:55:17.639Z,9.27
2019-02-21T13:57:47.310Z,10.30
2019-02-21T14:00:18.193Z,9.50
2019-02-21T14:02:48.022Z,9.17
2019-02-21T14:05:17.621Z,8.37
2019-02-21T14:07:47.201Z,10.37
2019-02-21T14:10:16.865Z,11.97
2019-02-21T14:12:46.530Z,11.13
2019-02-21T14:15:18.316Z,11.60
2019-02-21T14:17:47.965Z,12.73
2019-02-21T14:20:17.582Z,9.10
2019-02-21T14:22:47.187Z,12.13
2019-02-21T14:25:16.820Z,9.23
2019-02-21T14:27:46.430Z,10.87
2019-02-21T14:30:17.467Z,9.87
2019-02-21T14:32:47.186Z,8.33
2019-02-21T14:35:16.924Z,10.73
2019-02-21T14:37:46.516Z,8.27
2019-02-21T14:40:16.190Z,7.87
2019-02-21T14:42:45.890Z,9.43
2019-02-21T14:45:16.770Z,9.47
2019-02-21T14:47:46.428Z,8.53
2019-02-21T14:50:16.144Z,8.50
2019-02-21T14:52:45.751Z,9.13
2019-02-21T14:55:15.606Z,8.70
2019-02-21T14:57:45.220Z,8.77
2019-02-21T15:00:17.189Z,8.30
2019-02-21T15:02:46.844Z,8.23
2019-02-21T15:05:16.775Z,8.63
2019-02-21T15:07:46.395Z,9.07
2019-02-21T15:10:16.221Z,8.30
2019-02-21T15:12:45.934Z,8.83
2019-02-21T15:15:16.666Z,9.73
2019-02-21T15:17:46.316Z,10.50
2019-02-21T15:20:16.476Z,10.73
2019-02-21T15:22:46.063Z,9.83
2019-02-21T15:25:15.901Z,11.07
2019-02-21T15:27:45.753Z,11.43
2019-02-21T15:30:17.396Z,13.93
2019-02-21T15:32:47.159Z,13.57
2019-02-21T15:35:19.276Z,11.63
2019-02-21T15:37:48.205Z,11.30
2019-02-21T15:40:17.862Z,10.40
2019-02-21T15:42:47.463Z,8.23
2019-02-21T15:45:23.468Z,7.50
2019-02-21T15:47:50.304Z,8.80
2019-02-21T15:50:20.444Z,7.80
2019-02-21T15:52:50.153Z,7.53
2019-02-21T15:55:19.803Z,10.63
2019-02-21T15:57:49.413Z,7.83
2019-02-21T16:00:19.717Z,7.87
2019-02-21T16:02:49.313Z,8.40
2019-02-21T16:05:18.951Z,7.93
2019-02-21T16:07:48.573Z,7.57
2019-02-21T16:10:20.147Z,8.97
2019-02-21T16:12:50.611Z,8.07
2019-02-21T16:15:20.734Z,11.63
2019-02-21T16:17:50.422Z,10.00
2019-02-21T16:20:20.234Z,16.43
2019-02-21T16:22:49.856Z,16.97
2019-02-21T16:25:20.703Z,16.50
2019-02-21T16:27:50.344Z,20.63
2019-02-21T16:30:21.993Z,18.17
2019-02-21T16:32:51.355Z,18.33
2019-02-21T16:35:20.951Z,17.30
2019-02-21T16:37:50.564Z,16.30
2019-02-21T16:40:20.394Z,14.90
2019-02-21T16:42:50.026Z,14.57
2019-02-21T16:45:19.682Z,13.27
2019-02-21T16:47:49.313Z,12.83
2019-02-21T16:50:29.337Z,10.67
2019-02-21T16:52:50.436Z,10.33
2019-02-21T16:55:20.231Z,9.53
2019-02-21T16:57:49.847Z,11.90
2019-02-21T17:00:19.669Z,10.67
2019-02-21T17:02:49.322Z,16.23
2019-02-21T17:05:19.055Z,11.83
2019-02-21T17:07:48.718Z,10.40
2019-02-21T17:10:18.569Z,10.13
2019-02-21T17:12:48.203Z,9.93
2019-02-21T17:15:17.907Z,9.80
2019-02-21T17:17:47.560Z,10.90
2019-02-21T17:20:17.229Z,11.03
2019-02-21T17:22:46.990Z,9.67
2019-02-21T17:25:16.759Z,8.10
2019-02-21T17:27:46.522Z,26.20
2019-02-21T17:30:17.079Z,8.97
2019-02-21T17:32:46.916Z,7.37
2019-02-21T17:35:16.544Z,9.33
2019-02-21T17:37:46.183Z,7.57
2019-02-21T17:40:17.987Z,9.87
2019-02-21T17:42:47.610Z,6.87
2019-02-21T17:45:17.276Z,9.27
2019-02-21T17:47:46.924Z,9.53
2019-02-21T17:50:16.805Z,8.93
2019-02-21T17:52:46.573Z,9.37
2019-02-21T17:55:16.590Z,10.47
2019-02-21T17:57:46.223Z,8.33
2019-02-21T18:00:20.359Z,8.67
2019-02-21T18:02:50.063Z,9.40
2019-02-21T18:05:19.676Z,9.07
2019-02-21T18:07:49.430Z,8.43
2019-02-21T18:10:19.166Z,9.00
2019-02-21T18:12:48.845Z,8.30
2019-02-21T18:15:18.769Z,7.70
2019-02-21T18:17:48.426Z,8.40
2019-02-21T18:20:18.084Z,8.57
2019-02-21T18:22:47.788Z,9.00
2019-02-21T18:25:21.268Z,9.90
2019-02-21T18:27:51.017Z,10.17
2019-02-21T18:30:20.704Z,9.93
2019-02-21T18:32:50.388Z,9.57
2019-02-21T18:35:21.336Z,9.00
2019-02-21T18:37:51.072Z,7.90
2019-02-21T18:40:21.195Z,10.37
2019-02-21T18:42:50.848Z,8.87
2019-02-21T18:45:20.596Z,8.97
2019-02-21T18:47:50.197Z,11.40
2019-02-21T18:50:19.843Z,11.07
2019-02-21T18:52:49.470Z,8.87
2019-02-21T18:55:19.114Z,8.17
2019-02-21T18:57:48.728Z,8.83
2019-02-21T19:00:20.096Z,9.23
2019-02-21T19:02:49.697Z,9.23
2019-02-21T19:05:19.434Z,12.10
2019-02-21T19:07:58.313Z,10.40
2019-02-21T19:10:20.637Z,10.70
2019-02-21T19:12:50.314Z,8.77
2019-02-21T19:15:20.382Z,6.93
2019-02-21T19:17:50.064Z,9.10
2019-02-21T19:20:19.838Z,8.03
2019-02-21T19:22:49.699Z,9.50
2019-02-21T19:25:19.513Z,7.57
2019-02-21T19:27:49.229Z,7.33
2019-02-21T19:30:25.943Z,9.00
2019-02-21T19:32:55.522Z,8.17
2019-02-21T19:35:25.275Z,9.17
2019-02-21T19:37:54.972Z,7.17
2019-02-21T19:40:24.756Z,7.83
2019-02-21T19:42:54.377Z,8.60
2019-02-21T19:45:23.977Z,10.20
2019-02-21T19:47:53.730Z,12.53
2019-02-21T19:50:23.383Z,9.30
2019-02-21T19:52:52.964Z,8.33
2019-02-21T19:55:22.721Z,9.37
2019-02-21T19:57:52.442Z,9.53
2019-02-21T20:00:25.136Z,12.00
2019-02-21T20:02:55.148Z,10.50
2019-02-21T20:05:24.952Z,10.10
2019-02-21T20:07:54.669Z,7.97
2019-02-21T20:10:24.630Z,7.97
2019-02-21T20:12:54.792Z,8.40
2019-02-21T20:15:24.403Z,9.53
2019-02-21T20:17:54.007Z,8.73
2019-02-21T20:20:23.893Z,9.43
2019-02-21T20:22:53.542Z,9.43
2019-02-21T20:25:23.282Z,10.40
2019-02-21T20:27:52.950Z,9.67
2019-02-21T20:30:22.620Z,10.00
2019-02-21T20:32:52.254Z,9.63
2019-02-21T20:35:21.850Z,11.10
2019-02-21T20:37:51.502Z,11.43
2019-02-21T20:40:21.118Z,10.83
2019-02-21T20:42:50.739Z,12.37
2019-02-21T20:45:20.443Z,11.93
2019-02-21T20:47:50.080Z,11.97
2019-02-21T20:50:19.737Z,12.57
2019-02-21T20:52:49.374Z,12.17
2019-02-21T20:55:18.981Z,10.80
2019-02-21T20:57:48.786Z,11.07
2019-02-21T21:00:19.083Z,11.20
2019-02-21T21:02:48.841Z,11.13
2019-02-21T21:05:18.652Z,9.53
2019-02-21T21:07:48.242Z,14.00
2019-02-21T21:10:18.152Z,12.50
2019-02-21T21:12:47.814Z,11.83
2019-02-21T21:15:17.428Z,9.70
2019-02-21T21:17:47.055Z,12.23
2019-02-21T21:20:17.471Z,9.93
2019-02-21T21:22:47.275Z,9.57
2019-02-21T21:25:17.020Z,11.77
2019-02-21T21:27:46.683Z,10.80
2019-02-21T21:30:16.637Z,12.00
2019-02-21T21:32:46.479Z,10.80
2019-02-21T21:35:16.321Z,11.90
2019-02-21T21:37:45.893Z,10.67
2019-02-21T21:40:16.019Z,10.17
2019-02-21T21:42:45.845Z,13.77
2019-02-21T21:45:16.570Z,10.83
2019-02-21T21:47:46.166Z,9.87
2019-02-21T21:50:17.152Z,10.93
2019-02-21T21:52:46.768Z,12.37
2019-02-21T21:55:16.345Z,11.50
2019-02-21T21:57:45.996Z,10.10
2019-02-21T22:00:18.507Z,13.53
2019-02-21T22:02:48.134Z,11.83
2019-02-21T22:05:17.735Z,10.57
2019-02-21T22:07:49.334Z,12.80
2019-02-21T22:10:18.971Z,11.20
2019-02-21T22:12:48.724Z,10.10
2019-02-21T22:15:18.721Z,14.07
2019-02-21T22:17:48.452Z,9.87
2019-02-21T22:20:18.146Z,11.00
2019-02-21T22:22:47.806Z,10.43
2019-02-21T22:25:17.573Z,12.47
2019-02-21T22:27:47.288Z,9.47
2019-02-21T22:30:17.438Z,10.43
2019-02-21T22:32:47.257Z,10.83
2019-02-21T22:35:16.887Z,10.47
2019-02-21T22:37:46.551Z,10.30
2019-02-21T22:40:16.251Z,9.87
2019-02-21T22:42:45.929Z,10.33
2019-02-21T22:45:15.593Z,10.33
2019-02-21T22:47:45.340Z,9.53
2019-02-21T22:50:15.840Z,11.07
2019-02-21T22:52:45.638Z,11.80
2019-02-21T22:55:15.413Z,10.47
2019-02-21T22:57:45.111Z,9.13
2019-02-21T23:01:00.586Z,11.47
2019-02-21T23:03:43.687Z,10.57
2019-02-21T23:06:49.395Z,8.97
2019-02-21T23:09:27.410Z,9.90
2019-02-21T23:11:52.399Z,11.93
2019-02-21T23:14:22.209Z,10.80
2019-02-21T23:16:52.065Z,12.67
2019-02-21T23:19:24.138Z,11.83
2019-02-21T23:21:53.020Z,10.57
2019-02-21T23:24:22.620Z,10.63
2019-02-21T23:26:52.196Z,11.80
2019-02-21T23:29:21.772Z,11.97
2019-02-21T23:31:51.446Z,11.23
2019-02-21T23:34:41.282Z,14.00
2019-02-21T23:37:10.874Z,14.87
2019-02-21T23:39:40.520Z,13.40
2019-02-21T23:42:10.186Z,12.13
2019-02-21T23:44:39.903Z,11.73
2019-02-21T23:47:09.497Z,13.70
2019-02-21T23:49:39.074Z,14.83
2019-02-21T23:52:08.719Z,12.13
2019-02-21T23:54:38.269Z,13.00
2019-02-21T23:57:07.834Z,12.57
2019-02-21T23:59:37.426Z,10.60
